Terminal Aerodrome Forecast
Issued by NWS

Home | Current Version | Previous Version | Text Only | Print | Product List | Glossary On
Versions: 1 2 3 4 5 6 7 8 9 10 11 12 13 14 15 16 17 18 19 20 21 22 23 24 25 26 27 28 29 30
000
FTUS41 KGYX 230417 AAA
TAFRKD
TAF AMD
KRKD 230417Z 2304/2324 03017G30KT 5SM -DZ BR OVC008 WS020/06045KT
     FM230800 03017G30KT 3SM -RADZ BR OVC004 WS020/06050KT
     FM231500 03017G30KT 2SM RA BR OVC005
      AMD LTD TO CLD VIS AND WIND=

USA.gov is the U.S. government's official web portal to all federal, state and local government web resources and services.